Time;durP1;ratioP1;P1;durP2;ratioP2;P2;SDS_P1;SDS_P2;PMS_P1;PMS_P2;Temp;Humidity;BMP_temperature;BMP_pressure;BME280_temperature;BME280_humidity;BME280_pressure;Samples;Min_cycle;Max_cycle;Signal;HPM_P1;HPM_P2
2022/07/09 00:00:00;;;;;;;;;;;;;;;18.51;56.38;102751.81;5068453;28;20395;-89
2022/07/09 00:02:25;;;;;;;;;;;;;;;18.63;56.09;102749.53;5061361;28;19928;-89
2022/07/09 00:04:50;;;;;;;;;;;;;;;18.73;56.03;102742.88;5062794;28;19928;-89
2022/07/09 00:07:16;;;;;;;;;;;;;;;18.73;56.05;102754.44;5058858;28;19924;-89
2022/07/09 00:09:41;;;;;;;;;;;;;;;18.68;55.99;102751.06;5068489;28;19920;-89
2022/07/09 00:12:06;;;;;;;;;;;;;;;18.37;58.81;102740.81;5059910;28;19963;-89
2022/07/09 00:14:31;;;;;;;;;;;;;;;18.17;58.21;102738.97;5061873;28;19930;-89
2022/07/09 00:16:57;;;;;;;;;;;;;;;18.08;58.95;102739.34;5060464;28;19923;-89
2022/07/09 00:19:22;;;;;;;;;;;;;;;18.12;57.66;102740.97;5065989;28;19924;-89
2022/07/09 00:21:47;;;;;;;;;;;;;;;18.20;57.42;102749.56;5068516;28;19943;-89
2022/07/09 00:24:12;;;;;;;;;;;;;;;18.34;57.12;102744.50;5048474;28;20019;-89
2022/07/09 00:26:38;;;;;;;;;;;;;;;18.24;57.73;102740.47;5062390;28;19917;-89
2022/07/09 00:29:03;;;;;;;;;;;;;;;18.29;57.16;102741.16;5064337;28;19964;-89
2022/07/09 00:31:28;;;;;;;;;;;;;;;18.31;57.63;102749.09;5065390;28;19935;-89
2022/07/09 00:33:54;;;;;;;;;;;;;;;18.39;57.91;102748.78;5043336;28;19913;-89
2022/07/09 00:36:19;;;;;;;;;;;;;;;18.44;57.55;102749.47;5049119;28;20355;-89
2022/07/09 00:38:44;;;;;;;;;;;;;;;18.22;59.95;102738.78;5063266;28;20360;-89
2022/07/09 00:41:09;;;;;;;;;;;;;;;18.03;60.38;102738.69;5060073;28;19921;-89
2022/07/09 00:43:34;;;;;;;;;;;;;;;18.01;58.03;102740.56;5049142;28;19966;-89
2022/07/09 00:46:00;;;;;;;;;;;;;;;18.13;58.15;102737.34;5062956;28;19995;-89
2022/07/09 00:48:25;;;;;;;;;;;;;;;18.20;57.63;102741.53;5059883;28;19926;-89
2022/07/09 00:50:50;;;;;;;;;;;;;;;18.19;57.63;102737.13;5067062;28;20375;-89
2022/07/09 00:53:17;;;;;;;;;;;;;;;18.25;57.57;102731.50;5069507;28;20010;-90
2022/07/09 00:55:44;;;;;;;;;;;;;;;18.29;57.43;102738.47;5061997;28;19958;-90
2022/07/09 00:58:10;;;;;;;;;;;;;;;18.32;57.46;102741.00;5063833;28;19927;-89
2022/07/09 01:00:36;;;;;;;;;;;;;;;18.34;57.35;102739.16;5061987;28;20401;-89
2022/07/09 01:03:01;;;;;;;;;;;;;;;18.28;57.48;102739.41;5058818;28;19921;-90
2022/07/09 01:05:26;;;;;;;;;;;;;;;18.16;57.24;102742.59;5061635;28;19955;-89
2022/07/09 01:07:52;;;;;;;;;;;;;;;18.06;60.28;102734.06;5066207;28;20007;-89
2022/07/09 01:10:17;;;;;;;;;;;;;;;17.91;58.43;102741.88;5064848;28;19952;-89
2022/07/09 01:12:44;;;;;;;;;;;;;;;17.92;58.33;102730.22;5062939;28;19916;-89
2022/07/09 01:15:09;;;;;;;;;;;;;;;17.93;58.40;102732.84;5064132;28;20280;-89
2022/07/09 01:17:40;;;;;;;;;;;;;;;17.75;59.34;102722.88;5062220;28;20174;-89
2022/07/09 01:20:06;;;;;;;;;;;;;;;17.65;61.29;102718.78;5044167;28;20149;-89
2022/07/09 01:22:32;;;;;;;;;;;;;;;17.47;62.85;102721.25;5062677;28;19912;-89
2022/07/09 01:24:58;;;;;;;;;;;;;;;17.33;61.02;102713.78;5064092;28;20386;-89
2022/07/09 01:27:24;;;;;;;;;;;;;;;17.40;60.82;102718.91;5067431;28;20399;-89
2022/07/09 01:29:49;;;;;;;;;;;;;;;17.36;60.85;102710.13;5066659;28;20011;-89
2022/07/09 01:32:15;;;;;;;;;;;;;;;17.33;60.30;102710.22;5064293;28;19995;-89
2022/07/09 01:34:40;;;;;;;;;;;;;;;17.31;63.28;102710.31;5061746;28;19920;-89
2022/07/09 01:37:06;;;;;;;;;;;;;;;17.17;62.75;102709.97;5046209;28;20422;-89
2022/07/09 01:39:31;;;;;;;;;;;;;;;17.17;60.42;102703.75;5061541;28;19966;-89
2022/07/09 01:41:56;;;;;;;;;;;;;;;17.29;60.06;102703.25;5040253;28;19920;-89
2022/07/09 01:44:21;;;;;;;;;;;;;;;17.33;60.17;102694.19;5063984;28;19913;-89
2022/07/09 01:46:46;;;;;;;;;;;;;;;17.35;59.41;102689.66;5064438;28;19917;-89
2022/07/09 01:49:12;;;;;;;;;;;;;;;17.46;59.58;102694.59;5064234;28;20295;-89
2022/07/09 01:51:37;;;;;;;;;;;;;;;17.51;58.76;102701.50;5061757;28;19960;-89
2022/07/09 01:54:03;;;;;;;;;;;;;;;17.54;58.82;102695.16;5061105;28;19917;-89
2022/07/09 01:56:28;;;;;;;;;;;;;;;17.58;58.40;102692.31;5065480;28;19963;-89
2022/07/09 01:58:53;;;;;;;;;;;;;;;17.53;58.68;102690.72;5046512;28;19955;-89
2022/07/09 02:01:19;;;;;;;;;;;;;;;17.51;58.92;102693.47;5061429;28;20294;-89
2022/07/09 02:03:44;;;;;;;;;;;;;;;17.53;58.51;102691.63;5064440;28;19920;-89
2022/07/09 02:06:09;;;;;;;;;;;;;;;17.48;58.54;102690.03;5063799;28;19920;-89
2022/07/09 02:08:34;;;;;;;;;;;;;;;17.48;58.93;102696.25;5066440;28;19916;-89
2022/07/09 02:11:00;;;;;;;;;;;;;;;17.50;59.47;102691.72;5064619;28;20015;-89
2022/07/09 02:13:26;;;;;;;;;;;;;;;17.48;58.81;102684.69;5061765;28;19917;-89
2022/07/09 02:15:51;;;;;;;;;;;;;;;17.48;59.35;102680.19;5062477;28;20469;-89
2022/07/09 02:18:16;;;;;;;;;;;;;;;17.44;58.82;102683.06;5064560;28;19928;-88
2022/07/09 02:20:42;;;;;;;;;;;;;;;17.36;59.05;102686.06;5046735;28;19920;-88
2022/07/09 02:23:07;;;;;;;;;;;;;;;17.17;59.27;102675.22;5060403;28;19928;-89
2022/07/09 02:25:33;;;;;;;;;;;;;;;17.14;59.59;102679.78;5047517;28;19927;-89
2022/07/09 02:27:58;;;;;;;;;;;;;;;17.20;59.30;102679.53;5064949;28;19958;-89
2022/07/09 02:30:23;;;;;;;;;;;;;;;17.20;59.26;102680.41;5055921;28;19947;-88
2022/07/09 02:32:48;;;;;;;;;;;;;;;17.17;59.06;102680.56;5048809;28;19916;-88
2022/07/09 02:35:14;;;;;;;;;;;;;;;17.20;59.19;102677.75;5059505;28;20074;-88
2022/07/09 02:37:39;;;;;;;;;;;;;;;17.25;59.09;102678.47;5062938;28;20295;-89
2022/07/09 02:40:05;;;;;;;;;;;;;;;17.19;59.42;102677.81;5064676;28;19963;-88
2022/07/09 02:42:30;;;;;;;;;;;;;;;17.14;59.21;102669.97;5049784;28;19924;-88
2022/07/09 02:44:55;;;;;;;;;;;;;;;17.00;60.46;102669.63;5062098;28;20398;-88
2022/07/09 02:47:20;;;;;;;;;;;;;;;16.89;59.72;102670.03;5046741;28;19936;-88
2022/07/09 02:49:45;;;;;;;;;;;;;;;16.89;60.05;102663.84;5050156;28;19916;-88
2022/07/09 02:52:11;;;;;;;;;;;;;;;16.91;59.42;102667.31;5059658;28;19928;-88
2022/07/09 02:54:36;;;;;;;;;;;;;;;16.81;61.51;102666.78;5063864;28;20356;-88
2022/07/09 02:57:01;;;;;;;;;;;;;;;16.67;60.50;102659.25;5061771;28;20025;-88
2022/07/09 02:59:26;;;;;;;;;;;;;;;16.54;61.79;102653.47;5059072;28;19968;-89
2022/07/09 03:01:51;;;;;;;;;;;;;;;16.49;60.93;102655.44;5062591;28;19921;-88
2022/07/09 03:04:17;;;;;;;;;;;;;;;16.38;61.08;102654.09;5062515;28;19971;-88
2022/07/09 03:06:42;;;;;;;;;;;;;;;16.37;61.26;102649.66;5064145;28;19940;-89
2022/07/09 03:09:07;;;;;;;;;;;;;;;16.44;60.84;102652.06;5043380;28;20029;-88
2022/07/09 03:11:32;;;;;;;;;;;;;;;16.54;60.89;102657.94;5061980;28;19974;-88
2022/07/09 03:13:57;;;;;;;;;;;;;;;16.57;61.02;102656.03;5059266;28;19920;-88
2022/07/09 03:16:23;;;;;;;;;;;;;;;16.53;60.59;102657.06;5065382;28;20009;-88
2022/07/09 03:18:48;;;;;;;;;;;;;;;16.48;61.76;102658.16;5062654;28;20363;-88
2022/07/09 03:21:13;;;;;;;;;;;;;;;16.49;61.49;102660.78;5045997;28;19916;-89
2022/07/09 03:23:41;;;;;;;;;;;;;;;16.54;61.05;102652.59;5061567;28;20490;-89
2022/07/09 03:26:06;;;;;;;;;;;;;;;16.59;60.93;102655.97;5064919;28;20268;-89
2022/07/09 03:28:32;;;;;;;;;;;;;;;16.58;60.82;102655.09;5064984;28;19916;-89
2022/07/09 03:30:57;;;;;;;;;;;;;;;16.58;61.51;102652.44;5060679;28;19928;-88
2022/07/09 03:33:22;;;;;;;;;;;;;;;16.61;60.45;102648.78;5058951;28;20442;-89
2022/07/09 03:35:47;;;;;;;;;;;;;;;16.59;60.38;102656.84;5048524;28;19927;-88
2022/07/09 03:38:13;;;;;;;;;;;;;;;16.62;61.50;102657.66;5057236;28;19931;-89
2022/07/09 03:40:38;;;;;;;;;;;;;;;16.64;60.60;102662.00;5048016;28;19920;-89
2022/07/09 03:43:03;;;;;;;;;;;;;;;16.69;60.98;102656.50;5060934;28;20308;-89
2022/07/09 03:45:28;;;;;;;;;;;;;;;16.68;60.81;102660.97;5068653;28;20057;-89
2022/07/09 03:47:54;;;;;;;;;;;;;;;16.65;60.53;102660.25;5061567;28;20224;-89
2022/07/09 03:50:20;;;;;;;;;;;;;;;16.66;60.56;102661.97;5063788;28;20375;-89
2022/07/09 03:52:45;;;;;;;;;;;;;;;16.63;60.33;102657.59;5062850;28;19959;-89
2022/07/09 03:55:10;;;;;;;;;;;;;;;16.54;61.28;102652.59;5056045;28;20001;-88
2022/07/09 03:57:35;;;;;;;;;;;;;;;16.51;60.73;102655.41;5065081;28;19923;-88
2022/07/09 04:00:01;;;;;;;;;;;;;;;16.44;60.99;102654.72;5071550;28;19958;-89
2022/07/09 04:02:26;;;;;;;;;;;;;;;16.46;60.91;102654.66;5064673;28;19928;-89
2022/07/09 04:04:51;;;;;;;;;;;;;;;16.51;61.03;102663.41;5067046;28;19920;-89
2022/07/09 04:07:16;;;;;;;;;;;;;;;16.56;61.22;102654.28;5062851;28;19916;-89
2022/07/09 04:09:42;;;;;;;;;;;;;;;16.44;64.85;102652.06;5065018;28;19920;-89
2022/07/09 04:12:07;;;;;;;;;;;;;;;16.26;61.78;102648.25;5063575;28;20304;-88
2022/07/09 04:14:32;;;;;;;;;;;;;;;16.27;61.43;102652.69;5068629;28;20013;-89
2022/07/09 04:16:57;;;;;;;;;;;;;;;16.38;61.67;102654.09;5065041;28;19959;-89
2022/07/09 04:19:23;;;;;;;;;;;;;;;16.43;61.81;102649.47;5048312;28;19965;-89
2022/07/09 04:21:48;;;;;;;;;;;;;;;16.35;63.58;102649.72;5048154;28;19924;-89
2022/07/09 04:24:15;;;;;;;;;;;;;;;16.28;62.59;102643.72;5066346;28;19920;-89
2022/07/09 04:26:40;;;;;;;;;;;;;;;16.30;63.96;102644.53;5061371;28;19927;-89
2022/07/09 04:29:06;;;;;;;;;;;;;;;16.22;62.43;102643.06;5064860;28;20306;-89
2022/07/09 04:31:31;;;;;;;;;;;;;;;16.27;63.10;102639.34;5066687;28;19920;-89
2022/07/09 04:33:56;;;;;;;;;;;;;;;16.25;63.05;102641.16;5058649;28;19924;-89
2022/07/09 04:36:21;;;;;;;;;;;;;;;16.29;62.58;102642.81;5062224;28;19924;-89
2022/07/09 04:38:46;;;;;;;;;;;;;;;16.43;62.87;102644.13;5054119;28;20500;-89
2022/07/09 04:41:12;;;;;;;;;;;;;;;16.55;61.80;102644.56;5047297;28;19916;-89
2022/07/09 04:43:37;;;;;;;;;;;;;;;16.70;61.37;102648.44;5065607;28;19923;-89
2022/07/09 04:46:02;;;;;;;;;;;;;;;16.84;61.67;102650.66;5047422;28;19912;-89
2022/07/09 04:48:27;;;;;;;;;;;;;;;16.95;61.22;102636.88;5062697;28;19916;-89
2022/07/09 04:50:53;;;;;;;;;;;;;;;17.07;61.03;102647.09;5060415;28;19929;-89
2022/07/09 04:53:18;;;;;;;;;;;;;;;17.17;61.60;102640.47;5064334;28;19924;-89
2022/07/09 04:55:43;;;;;;;;;;;;;;;17.31;62.74;102648.81;5065156;28;19999;-89
2022/07/09 04:58:08;;;;;;;;;;;;;;;17.46;63.60;102641.97;5066183;28;19923;-89
2022/07/09 05:00:34;;;;;;;;;;;;;;;17.56;62.72;102645.13;5049157;28;19916;-89
2022/07/09 05:02:59;;;;;;;;;;;;;;;17.63;61.54;102651.13;5065429;28;19920;-88
2022/07/09 05:05:25;;;;;;;;;;;;;;;17.72;61.98;102645.38;5069182;28;20043;-88
2022/07/09 05:07:51;;;;;;;;;;;;;;;17.76;60.50;102645.22;5065696;28;19920;-88
2022/07/09 05:10:16;;;;;;;;;;;;;;;17.69;68.15;102642.84;5065866;28;19928;-88
2022/07/09 05:12:42;;;;;;;;;;;;;;;17.56;64.48;102634.44;5062011;28;19920;-88
2022/07/09 05:15:08;;;;;;;;;;;;;;;17.64;62.96;102635.00;5067990;28;19916;-88
2022/07/09 05:17:34;;;;;;;;;;;;;;;17.78;64.00;102639.81;5049046;28;19916;-88
2022/07/09 05:19:59;;;;;;;;;;;;;;;17.94;63.44;102640.03;5066171;28;19921;-88
2022/07/09 05:22:25;;;;;;;;;;;;;;;18.05;63.44;102638.66;5065004;28;19927;-88
2022/07/09 05:24:50;;;;;;;;;;;;;;;18.10;64.06;102641.13;5065892;28;19920;-88
2022/07/09 05:27:15;;;;;;;;;;;;;;;18.15;65.32;102638.25;5066611;28;20156;-88
2022/07/09 05:29:40;;;;;;;;;;;;;;;18.07;66.10;102626.06;5062570;28;19973;-88
2022/07/09 05:32:06;;;;;;;;;;;;;;;18.08;62.38;102627.81;5063520;28;20036;-88
2022/07/09 05:34:31;;;;;;;;;;;;;;;18.18;63.74;102635.44;5067926;28;19917;-89
2022/07/09 05:36:56;;;;;;;;;;;;;;;18.24;62.42;102632.50;5061857;28;20006;-88
2022/07/09 05:39:22;;;;;;;;;;;;;;;18.32;62.82;102644.59;5058205;28;19935;-89
2022/07/09 05:41:48;;;;;;;;;;;;;;;18.39;67.00;102639.00;5063164;28;20360;-88
2022/07/09 05:44:13;;;;;;;;;;;;;;;18.32;64.01;102644.59;5062638;28;19967;-89
2022/07/09 05:46:38;;;;;;;;;;;;;;;18.42;63.83;102637.06;5049894;28;19916;-89
2022/07/09 05:49:04;;;;;;;;;;;;;;;18.50;63.84;102639.38;5063968;28;19916;-90
2022/07/09 05:51:29;;;;;;;;;;;;;;;18.54;63.82;102627.59;5064172;28;20434;-88
2022/07/09 05:53:54;;;;;;;;;;;;;;;18.49;62.82;102632.28;5062988;28;19916;-88
2022/07/09 05:56:20;;;;;;;;;;;;;;;18.53;63.72;102631.22;5065509;28;19952;-88
2022/07/09 05:58:45;;;;;;;;;;;;;;;18.66;63.81;102627.03;5064342;28;19916;-89
2022/07/09 06:01:11;;;;;;;;;;;;;;;18.75;67.39;102623.09;5063180;28;19924;-88
2022/07/09 06:03:37;;;;;;;;;;;;;;;18.89;64.86;102623.34;5056520;28;19942;-88
2022/07/09 06:06:02;;;;;;;;;;;;;;;19.03;66.08;102630.72;5062587;28;19920;-89
2022/07/09 06:08:27;;;;;;;;;;;;;;;19.00;66.15;102622.81;5067221;28;19977;-88
2022/07/09 06:10:52;;;;;;;;;;;;;;;18.99;63.52;102631.81;5064275;28;20376;-88
2022/07/09 06:13:18;;;;;;;;;;;;;;;18.99;66.62;102623.75;5057840;28;20664;-88
2022/07/09 06:15:43;;;;;;;;;;;;;;;19.10;63.33;102629.47;5058547;28;20185;-88
2022/07/09 06:18:08;;;;;;;;;;;;;;;19.27;63.08;102637.59;5059166;28;19913;-89
2022/07/09 06:20:33;;;;;;;;;;;;;;;19.45;62.67;102640.34;5063792;28;19920;-88
2022/07/09 06:22:58;;;;;;;;;;;;;;;19.62;62.84;102638.56;5045763;28;20991;-88
2022/07/09 06:25:24;;;;;;;;;;;;;;;19.76;63.71;102635.19;5058690;28;19917;-88
2022/07/09 06:27:49;;;;;;;;;;;;;;;19.85;62.26;102637.41;5059142;28;20011;-89
2022/07/09 06:30:14;;;;;;;;;;;;;;;20.01;62.58;102644.72;5060297;28;19929;-88
2022/07/09 06:32:39;;;;;;;;;;;;;;;20.07;62.67;102644.38;5063060;28;20342;-88
2022/07/09 06:35:05;;;;;;;;;;;;;;;20.04;64.52;102649.91;5064749;28;19967;-88
2022/07/09 06:37:30;;;;;;;;;;;;;;;19.95;61.69;102645.00;5046720;28;20264;-88
2022/07/09 06:39:57;;;;;;;;;;;;;;;20.03;61.83;102646.34;5068921;28;19916;-89
2022/07/09 06:42:22;;;;;;;;;;;;;;;20.05;63.90;102649.84;5061084;28;19923;-89
2022/07/09 06:44:48;;;;;;;;;;;;;;;20.19;61.14;102634.81;5058000;28;19916;-88
2022/07/09 06:47:13;;;;;;;;;;;;;;;20.29;62.49;102639.66;5058559;28;20402;-88
2022/07/09 06:49:38;;;;;;;;;;;;;;;20.41;62.64;102642.63;5059547;28;20324;-88
2022/07/09 06:52:04;;;;;;;;;;;;;;;20.48;60.82;102644.09;5061187;28;20019;-88
2022/07/09 06:54:29;;;;;;;;;;;;;;;20.60;60.89;102646.97;5060876;28;20284;-88
2022/07/09 06:56:56;;;;;;;;;;;;;;;20.67;61.55;102643.97;5064416;28;19916;-88
2022/07/09 06:59:22;;;;;;;;;;;;;;;20.67;61.64;102638.59;5069013;28;19927;-88
2022/07/09 07:01:47;;;;;;;;;;;;;;;20.85;61.35;102641.16;5062494;28;19924;-88
2022/07/09 07:04:14;;;;;;;;;;;;;;;21.12;60.71;102643.22;5062824;28;20287;-88
2022/07/09 07:06:39;;;;;;;;;;;;;;;21.39;60.13;102644.41;5060611;28;20397;-87
2022/07/09 07:09:05;;;;;;;;;;;;;;;21.51;59.41;102637.47;5064038;28;20006;-88
2022/07/09 07:11:30;;;;;;;;;;;;;;;21.62;58.93;102645.78;5061845;28;20062;-87
2022/07/09 07:13:55;;;;;;;;;;;;;;;21.65;58.86;102642.03;5061505;28;20118;-88
2022/07/09 07:16:20;;;;;;;;;;;;;;;21.67;59.43;102647.34;5052794;28;19920;-87
2022/07/09 07:18:45;;;;;;;;;;;;;;;21.68;59.12;102644.53;5065885;28;19947;-88
2022/07/09 07:21:11;;;;;;;;;;;;;;;21.68;59.34;102641.84;5061999;28;19916;-87
2022/07/09 07:23:36;;;;;;;;;;;;;;;21.98;59.42;102643.72;5063586;28;19920;-88
2022/07/09 07:26:01;;;;;;;;;;;;;;;22.29;58.04;102642.72;5059804;28;19952;-87
2022/07/09 07:28:26;;;;;;;;;;;;;;;22.52;58.38;102639.53;5059710;28;19920;-87
2022/07/09 07:30:52;;;;;;;;;;;;;;;22.68;57.01;102647.50;5064248;28;19920;-87
2022/07/09 07:33:17;;;;;;;;;;;;;;;22.87;56.92;102636.44;5068279;28;20399;-87
2022/07/09 07:35:43;;;;;;;;;;;;;;;23.10;57.18;102627.75;5064319;28;19927;-87
2022/07/09 07:38:08;;;;;;;;;;;;;;;23.32;56.22;102642.56;5068278;28;20258;-88
2022/07/09 07:40:33;;;;;;;;;;;;;;;23.20;56.50;102640.66;5063552;28;19916;-88
2022/07/09 07:42:59;;;;;;;;;;;;;;;23.10;56.77;102649.34;5065411;28;19963;-88
2022/07/09 07:45:24;;;;;;;;;;;;;;;23.15;56.44;102643.66;5064307;28;20042;-88
2022/07/09 07:47:49;;;;;;;;;;;;;;;23.22;56.63;102650.38;5046179;28;19948;-88
2022/07/09 07:50:14;;;;;;;;;;;;;;;23.51;56.13;102636.81;5068884;28;19935;-88
2022/07/09 07:52:40;;;;;;;;;;;;;;;23.64;55.25;102644.03;5065503;28;20085;-88
2022/07/09 07:55:05;;;;;;;;;;;;;;;23.65;55.56;102639.50;5061824;28;20462;-88
2022/07/09 07:57:30;;;;;;;;;;;;;;;23.56;55.50;102640.94;5061773;28;19939;-88
2022/07/09 07:59:55;;;;;;;;;;;;;;;23.42;55.83;102646.38;5067917;28;19916;-88
2022/07/09 08:02:21;;;;;;;;;;;;;;;23.30;56.20;102647.19;5049735;28;19920;-87
2022/07/09 08:04:46;;;;;;;;;;;;;;;23.17;56.05;102650.69;5069884;28;20042;-89
2022/07/09 08:07:11;;;;;;;;;;;;;;;23.10;56.23;102643.94;5068408;28;19920;-88
2022/07/09 08:09:36;;;;;;;;;;;;;;;23.21;55.97;102640.53;5066463;28;20007;-89
2022/07/09 08:12:01;;;;;;;;;;;;;;;23.23;55.86;102637.75;5065424;28;20007;-88
2022/07/09 08:14:27;;;;;;;;;;;;;;;23.33;55.71;102626.25;5071152;28;20023;-88
2022/07/09 08:16:52;;;;;;;;;;;;;;;23.44;55.23;102622.84;5060632;28;19944;-88
2022/07/09 08:19:17;;;;;;;;;;;;;;;23.83;54.92;102624.75;5068771;28;20019;-88
2022/07/09 08:21:42;;;;;;;;;;;;;;;23.82;54.24;102624.84;5065999;28;20454;-88
2022/07/09 08:24:08;;;;;;;;;;;;;;;23.75;54.34;102618.13;5068291;28;19913;-88
2022/07/09 08:26:33;;;;;;;;;;;;;;;23.88;54.40;102613.63;5066552;28;20507;-88
2022/07/09 08:28:58;;;;;;;;;;;;;;;24.23;53.70;102605.75;5067646;28;19917;-88
2022/07/09 08:31:23;;;;;;;;;;;;;;;24.42;53.50;102600.81;5046927;28;19952;-88
2022/07/09 08:33:49;;;;;;;;;;;;;;;25.47;52.09;102591.38;5064565;28;19916;-88
2022/07/09 08:36:14;;;;;;;;;;;;;;;26.45;48.48;102592.81;5065794;28;20425;-88
2022/07/09 08:38:40;;;;;;;;;;;;;;;27.06;46.76;102588.81;5048906;28;20380;-88
2022/07/09 08:41:05;;;;;;;;;;;;;;;27.13;46.39;102596.34;5062033;28;19924;-87
2022/07/09 08:43:35;;;;;;;;;;;;;;;26.65;47.96;102587.63;5065165;28;20035;-87
2022/07/09 08:46:00;;;;;;;;;;;;;;;26.31;48.42;102587.59;5046958;28;19970;-88
2022/07/09 08:48:25;;;;;;;;;;;;;;;25.52;49.99;102593.75;5063009;28;19920;-88
2022/07/09 08:50:51;;;;;;;;;;;;;;;25.22;50.55;102588.78;5052931;28;20088;-88
2022/07/09 08:53:17;;;;;;;;;;;;;;;25.55;50.35;102588.94;5049748;28;19927;-88
2022/07/09 08:55:42;;;;;;;;;;;;;;;25.53;50.20;102593.63;5061588;28;19963;-88
2022/07/09 08:58:09;;;;;;;;;;;;;;;25.65;50.15;102594.53;5063203;28;19952;-88
2022/07/09 09:00:35;;;;;;;;;;;;;;;25.63;50.32;102597.34;5060691;28;20302;-88
2022/07/09 09:03:00;;;;;;;;;;;;;;;25.47;50.52;102590.53;5041836;28;19935;-88
2022/07/09 09:05:25;;;;;;;;;;;;;;;25.17;50.96;102589.13;5064571;28;19920;-88
2022/07/09 09:07:50;;;;;;;;;;;;;;;24.98;50.85;102589.59;5066571;28;19974;-88
2022/07/09 09:10:22;;;;;;;;;;;;;;;24.75;51.50;102593.09;5063347;28;19924;-88
2022/07/09 09:12:47;;;;;;;;;;;;;;;24.69;51.68;102602.53;5067416;28;19920;-88
2022/07/09 09:15:16;;;;;;;;;;;;;;;24.66;52.04;102608.16;5064914;28;19982;-88
2022/07/09 09:17:44;;;;;;;;;;;;;;;24.47;52.18;102597.78;5063159;28;20007;-88
2022/07/09 09:20:16;;;;;;;;;;;;;;;24.49;52.13;102595.88;5064874;28;19928;-88
2022/07/09 09:22:59;;;;;;;;;;;;;;;24.51;52.36;102596.59;5066380;28;19921;-89
2022/07/09 09:25:24;;;;;;;;;;;;;;;24.37;52.75;102584.06;5065874;28;19916;-89
2022/07/09 09:27:50;;;;;;;;;;;;;;;24.28;52.75;102591.94;5065979;28;20434;-89
2022/07/09 09:30:16;;;;;;;;;;;;;;;24.18;52.96;102583.59;5064363;28;19929;-89
2022/07/09 09:32:41;;;;;;;;;;;;;;;24.06;53.27;102589.84;5067411;28;20038;-90
2022/07/09 09:35:06;;;;;;;;;;;;;;;24.10;53.27;102596.78;5065345;28;19916;-90
2022/07/09 09:37:31;;;;;;;;;;;;;;;24.20;53.26;102589.75;5065113;28;19916;-89
2022/07/09 09:39:57;;;;;;;;;;;;;;;24.09;53.20;102589.66;5057800;28;19921;-89
2022/07/09 09:42:23;;;;;;;;;;;;;;;24.11;53.41;102587.72;5067052;28;20410;-89
2022/07/09 09:44:49;;;;;;;;;;;;;;;24.08;53.25;102590.63;5047510;28;20475;-89
2022/07/09 09:47:16;;;;;;;;;;;;;;;24.08;53.29;102586.09;5063662;28;19923;-89
2022/07/09 09:49:42;;;;;;;;;;;;;;;24.11;53.15;102588.59;5064375;28;19951;-89
2022/07/09 09:52:08;;;;;;;;;;;;;;;24.05;53.01;102588.13;5066022;28;20368;-89
2022/07/09 09:54:38;;;;;;;;;;;;;;;23.97;53.14;102588.69;5062192;28;19960;-89
2022/07/09 09:57:07;;;;;;;;;;;;;;;23.90;53.07;102588.22;5064958;28;19927;-90
2022/07/09 09:59:40;;;;;;;;;;;;;;;23.90;53.02;102595.47;5066642;28;19923;-89
2022/07/09 10:02:11;;;;;;;;;;;;;;;23.92;52.96;102583.59;5068543;28;20915;-89
2022/07/09 10:04:37;;;;;;;;;;;;;;;24.07;52.80;102581.66;5060076;28;20344;-89
2022/07/09 10:07:04;;;;;;;;;;;;;;;24.26;52.46;102586.63;5062507;28;19999;-89
2022/07/09 10:09:29;;;;;;;;;;;;;;;24.23;52.75;102578.75;5066764;28;19943;-90
2022/07/09 10:11:54;;;;;;;;;;;;;;;24.17;52.57;102590.84;5063044;28;20509;-90
2022/07/09 10:14:33;;;;;;;;;;;;;;;24.16;52.77;102582.84;5064650;28;19917;-89
2022/07/09 10:17:11;;;;;;;;;;;;;;;24.29;52.37;102585.53;5061800;28;20386;-89
2022/07/09 10:19:37;;;;;;;;;;;;;;;24.41;52.78;102577.47;5066133;28;20370;-89
2022/07/09 10:22:02;;;;;;;;;;;;;;;24.90;51.67;102571.22;5066317;28;19917;-89
2022/07/09 10:24:28;;;;;;;;;;;;;;;25.18;51.15;102566.47;5045971;28;20356;-89
2022/07/09 10:27:07;;;;;;;;;;;;;;;25.04;51.03;102567.50;5056001;28;19924;-89
2022/07/09 10:29:33;;;;;;;;;;;;;;;24.70;51.74;102571.81;5053769;28;19927;-89
2022/07/09 10:31:58;;;;;;;;;;;;;;;24.49;52.41;102576.06;5060660;28;20346;-89
2022/07/09 10:34:34;;;;;;;;;;;;;;;24.63;52.19;102575.94;5063624;28;19944;-89
2022/07/09 10:37:00;;;;;;;;;;;;;;;24.91;51.94;102575.66;5057661;28;20406;-88
2022/07/09 10:39:26;;;;;;;;;;;;;;;25.25;51.04;102570.47;5060569;28;19916;-89
2022/07/09 10:42:01;;;;;;;;;;;;;;;25.64;50.83;102565.72;5063833;28;20303;-88
2022/07/09 10:44:27;;;;;;;;;;;;;;;25.73;49.82;102567.72;5052569;28;19917;-89
2022/07/09 10:46:56;;;;;;;;;;;;;;;25.73;49.97;102577.69;5057873;28;20399;-88
2022/07/09 10:49:22;;;;;;;;;;;;;;;25.68;49.25;102569.91;5061171;28;19927;-88
2022/07/09 10:51:47;;;;;;;;;;;;;;;26.06;49.11;102568.81;5057062;28;19928;-89
2022/07/09 10:54:16;;;;;;;;;;;;;;;26.55;48.08;102568.53;5062323;28;20329;-89
2022/07/09 10:56:41;;;;;;;;;;;;;;;26.68;48.01;102563.81;5061683;28;20591;-89
2022/07/09 10:59:06;;;;;;;;;;;;;;;26.68;47.29;102563.81;5064146;28;19927;-89
2022/07/09 11:01:32;;;;;;;;;;;;;;;26.94;46.62;102564.38;5057671;28;19924;-89
2022/07/09 11:03:58;;;;;;;;;;;;;;;27.08;45.72;102571.41;5059244;28;19920;-89
2022/07/09 11:06:23;;;;;;;;;;;;;;;27.16;44.74;102570.78;5062230;28;19920;-88
2022/07/09 11:08:49;;;;;;;;;;;;;;;27.23;46.48;102566.56;5068670;28;19921;-89
2022/07/09 11:11:20;;;;;;;;;;;;;;;27.46;44.88;102568.19;5048021;28;19925;-89
2022/07/09 11:13:49;;;;;;;;;;;;;;;27.40;46.13;102571.44;5069712;28;20587;-90
2022/07/09 11:16:21;;;;;;;;;;;;;;;27.21;44.21;102574.84;5067295;28;20436;-89
2022/07/09 11:18:46;;;;;;;;;;;;;;;27.07;45.97;102571.53;5063735;28;19931;-89
2022/07/09 11:21:11;;;;;;;;;;;;;;;27.17;45.47;102575.22;5053926;28;20498;-88
2022/07/09 11:23:36;;;;;;;;;;;;;;;27.09;44.15;102566.84;5062393;28;19934;-89
2022/07/09 11:26:01;;;;;;;;;;;;;;;27.38;45.04;102564.44;5050950;28;20042;-89
2022/07/09 11:28:27;;;;;;;;;;;;;;;27.89;44.39;102564.59;5068876;28;19920;-89
2022/07/09 11:31:03;;;;;;;;;;;;;;;27.49;43.62;102575.25;5062178;28;19932;-90
2022/07/09 11:34:10;;;;;;;;;;;;;;;27.22;45.27;102581.13;5067411;28;19928;-91
2022/07/09 11:36:13;;;;;;;;;;;;;;;26.79;45.80;102581.09;5070846;28;19916;-90
2022/07/09 11:38:48;;;;;;;;;;;;;;;26.62;45.70;102577.88;5068425;28;19931;-90
2022/07/09 11:41:14;;;;;;;;;;;;;;;26.45;45.55;102579.25;5050376;28;19923;-90
2022/07/09 11:43:45;;;;;;;;;;;;;;;26.19;45.56;102578.56;5067540;28;19917;-89
2022/07/09 11:46:10;;;;;;;;;;;;;;;26.27;45.25;102580.69;5041942;28;19924;-88
2022/07/09 11:48:35;;;;;;;;;;;;;;;26.38;43.87;102580.69;5065774;28;20368;-90
2022/07/09 11:51:00;;;;;;;;;;;;;;;26.04;45.30;102576.22;5069960;28;19928;-89
2022/07/09 11:53:26;;;;;;;;;;;;;;;26.24;44.32;102575.50;5072840;28;19923;-89
2022/07/09 11:56:17;;;;;;;;;;;;;;;26.60;44.39;102566.28;5067264;28;19920;-89
2022/07/09 11:58:48;;;;;;;;;;;;;;;26.98;42.78;102570.44;5068836;28;20443;-90
2022/07/09 12:01:13;;;;;;;;;;;;;;;27.28;43.21;102563.47;5068380;28;19917;-90
2022/07/09 12:03:46;;;;;;;;;;;;;;;27.89;42.01;102575.44;5069271;28;20277;-90
2022/07/09 12:06:11;;;;;;;;;;;;;;;27.72;40.74;102576.03;5066566;28;19921;-90
2022/07/09 12:08:36;;;;;;;;;;;;;;;27.25;41.38;102569.16;5066661;28;20280;-91
2022/07/09 12:11:01;;;;;;;;;;;;;;;26.91;42.47;102572.81;5066770;28;19971;-91
2022/07/09 12:13:26;;;;;;;;;;;;;;;27.00;42.45;102571.19;5064493;28;19920;-90
2022/07/09 12:15:52;;;;;;;;;;;;;;;27.15;41.42;102567.22;5066140;28;20010;-89
2022/07/09 12:18:17;;;;;;;;;;;;;;;27.15;40.53;102569.94;5065293;28;20292;-89
2022/07/09 12:20:42;;;;;;;;;;;;;;;27.10;40.47;102574.91;5067629;28;20371;-90
2022/07/09 12:23:08;;;;;;;;;;;;;;;27.13;40.78;102573.75;5065549;28;19924;-90
2022/07/09 12:25:33;;;;;;;;;;;;;;;27.50;40.47;102563.38;5067239;28;19927;-90
2022/07/09 12:27:58;;;;;;;;;;;;;;;27.68;38.57;102572.69;5069742;28;19916;-90